sensor_id;sensor_type;location;lat;lon;timestamp;pressure;altitude;pressure_sealevel;temperature
9119;BMP180;4594;50.994;7.126;2024-03-08T00:01:35;100772.00;;;8.40
9119;BMP180;4594;50.994;7.126;2024-03-08T00:04:01;100763.00;;;8.40
9119;BMP180;4594;50.994;7.126;2024-03-08T00:06:27;100764.00;;;8.40
9119;BMP180;4594;50.994;7.126;2024-03-08T00:08:52;100735.00;;;8.40
9119;BMP180;4594;50.994;7.126;2024-03-08T00:11:18;100759.00;;;8.40
9119;BMP180;4594;50.994;7.126;2024-03-08T00:13:44;100728.00;;;8.40
9119;BMP180;4594;50.994;7.126;2024-03-08T00:16:10;100755.00;;;8.40
9119;BMP180;4594;50.994;7.126;2024-03-08T00:18:36;100730.00;;;8.30
9119;BMP180;4594;50.994;7.126;2024-03-08T00:21:02;100736.00;;;8.30
9119;BMP180;4594;50.994;7.126;2024-03-08T00:23:27;100734.00;;;8.30
9119;BMP180;4594;50.994;7.126;2024-03-08T00:25:53;100732.00;;;8.30
9119;BMP180;4594;50.994;7.126;2024-03-08T00:28:21;100721.00;;;8.30
9119;BMP180;4594;50.994;7.126;2024-03-08T00:30:47;100705.00;;;8.20
9119;BMP180;4594;50.994;7.126;2024-03-08T00:33:12;100730.00;;;8.20
9119;BMP180;4594;50.994;7.126;2024-03-08T00:35:38;100708.00;;;8.20
9119;BMP180;4594;50.994;7.126;2024-03-08T00:38:04;100715.00;;;8.10
9119;BMP180;4594;50.994;7.126;2024-03-08T00:40:30;100730.00;;;8.10
9119;BMP180;4594;50.994;7.126;2024-03-08T00:42:56;100707.00;;;8.10
9119;BMP180;4594;50.994;7.126;2024-03-08T00:45:21;100719.00;;;8.10
9119;BMP180;4594;50.994;7.126;2024-03-08T00:47:48;100686.00;;;8.10
9119;BMP180;4594;50.994;7.126;2024-03-08T00:50:14;100708.00;;;8.10
9119;BMP180;4594;50.994;7.126;2024-03-08T00:52:40;100700.00;;;8.10
9119;BMP180;4594;50.994;7.126;2024-03-08T00:55:06;100694.00;;;8.00
9119;BMP180;4594;50.994;7.126;2024-03-08T00:57:35;100701.00;;;8.10
9119;BMP180;4594;50.994;7.126;2024-03-08T01:00:06;100680.00;;;8.00
9119;BMP180;4594;50.994;7.126;2024-03-08T01:02:35;100700.00;;;8.00
9119;BMP180;4594;50.994;7.126;2024-03-08T01:05:01;100693.00;;;8.00
9119;BMP180;4594;50.994;7.126;2024-03-08T01:07:27;100687.00;;;8.00
9119;BMP180;4594;50.994;7.126;2024-03-08T01:09:53;100688.00;;;8.00
9119;BMP180;4594;50.994;7.126;2024-03-08T01:12:19;100680.00;;;8.00
9119;BMP180;4594;50.994;7.126;2024-03-08T01:14:45;100678.00;;;7.90
9119;BMP180;4594;50.994;7.126;2024-03-08T01:17:11;100692.00;;;7.90
9119;BMP180;4594;50.994;7.126;2024-03-08T01:19:37;100680.00;;;7.90
9119;BMP180;4594;50.994;7.126;2024-03-08T01:22:03;100673.00;;;7.90
9119;BMP180;4594;50.994;7.126;2024-03-08T01:24:29;100670.00;;;7.90
9119;BMP180;4594;50.994;7.126;2024-03-08T01:26:54;100665.00;;;7.90
9119;BMP180;4594;50.994;7.126;2024-03-08T01:29:20;100669.00;;;7.90
9119;BMP180;4594;50.994;7.126;2024-03-08T01:31:46;100666.00;;;7.90
9119;BMP180;4594;50.994;7.126;2024-03-08T01:34:12;100666.00;;;7.90
9119;BMP180;4594;50.994;7.126;2024-03-08T01:36:38;100646.00;;;7.80
9119;BMP180;4594;50.994;7.126;2024-03-08T01:39:04;100652.00;;;7.80
9119;BMP180;4594;50.994;7.126;2024-03-08T01:41:34;100654.00;;;7.80
9119;BMP180;4594;50.994;7.126;2024-03-08T01:44:00;100632.00;;;7.80
9119;BMP180;4594;50.994;7.126;2024-03-08T01:46:26;100644.00;;;7.80
9119;BMP180;4594;50.994;7.126;2024-03-08T01:48:54;100632.00;;;7.80
9119;BMP180;4594;50.994;7.126;2024-03-08T01:51:21;100637.00;;;7.80
9119;BMP180;4594;50.994;7.126;2024-03-08T01:53:48;100623.00;;;7.80
9119;BMP180;4594;50.994;7.126;2024-03-08T01:56:14;100630.00;;;7.80
9119;BMP180;4594;50.994;7.126;2024-03-08T01:58:42;100633.00;;;7.80
9119;BMP180;4594;50.994;7.126;2024-03-08T02:01:13;100624.00;;;7.80
9119;BMP180;4594;50.994;7.126;2024-03-08T02:03:43;100618.00;;;7.70
9119;BMP180;4594;50.994;7.126;2024-03-08T02:06:11;100627.00;;;7.80
9119;BMP180;4594;50.994;7.126;2024-03-08T02:08:39;100624.00;;;7.70
9119;BMP180;4594;50.994;7.126;2024-03-08T02:11:05;100607.00;;;7.70
9119;BMP180;4594;50.994;7.126;2024-03-08T02:13:31;100613.00;;;7.70
9119;BMP180;4594;50.994;7.126;2024-03-08T02:15:59;100620.00;;;7.70
9119;BMP180;4594;50.994;7.126;2024-03-08T02:18:26;100613.00;;;7.70
9119;BMP180;4594;50.994;7.126;2024-03-08T02:20:56;100605.00;;;7.70
9119;BMP180;4594;50.994;7.126;2024-03-08T02:23:23;100627.00;;;7.70
9119;BMP180;4594;50.994;7.126;2024-03-08T02:25:51;100620.00;;;7.70
9119;BMP180;4594;50.994;7.126;2024-03-08T02:28:17;100609.00;;;7.70
9119;BMP180;4594;50.994;7.126;2024-03-08T02:30:47;100611.00;;;7.70
9119;BMP180;4594;50.994;7.126;2024-03-08T02:33:18;100614.00;;;7.70
9119;BMP180;4594;50.994;7.126;2024-03-08T02:35:44;100608.00;;;7.70
9119;BMP180;4594;50.994;7.126;2024-03-08T02:38:15;100596.00;;;7.70
9119;BMP180;4594;50.994;7.126;2024-03-08T02:40:50;100610.00;;;7.70
9119;BMP180;4594;50.994;7.126;2024-03-08T02:43:17;100608.00;;;7.70
9119;BMP180;4594;50.994;7.126;2024-03-08T02:45:44;100601.00;;;7.70
9119;BMP180;4594;50.994;7.126;2024-03-08T02:48:15;100589.00;;;7.70
9119;BMP180;4594;50.994;7.126;2024-03-08T02:50:42;100605.00;;;7.70
9119;BMP180;4594;50.994;7.126;2024-03-08T02:53:12;100602.00;;;7.70
9119;BMP180;4594;50.994;7.126;2024-03-08T02:55:39;100594.00;;;7.70
9119;BMP180;4594;50.994;7.126;2024-03-08T02:58:07;100583.00;;;7.70
9119;BMP180;4594;50.994;7.126;2024-03-08T03:00:36;100579.00;;;7.60
9119;BMP180;4594;50.994;7.126;2024-03-08T03:03:02;100569.00;;;7.60
9119;BMP180;4594;50.994;7.126;2024-03-08T03:05:29;100586.00;;;7.60
9119;BMP180;4594;50.994;7.126;2024-03-08T03:07:55;100596.00;;;7.60
9119;BMP180;4594;50.994;7.126;2024-03-08T03:10:21;100578.00;;;7.60
9119;BMP180;4594;50.994;7.126;2024-03-08T03:12:48;100569.00;;;7.60
9119;BMP180;4594;50.994;7.126;2024-03-08T03:15:14;100578.00;;;7.60
9119;BMP180;4594;50.994;7.126;2024-03-08T03:17:49;100558.00;;;7.60
9119;BMP180;4594;50.994;7.126;2024-03-08T03:20:17;100575.00;;;7.60
9119;BMP180;4594;50.994;7.126;2024-03-08T03:22:49;100573.00;;;7.60
9119;BMP180;4594;50.994;7.126;2024-03-08T03:25:21;100581.00;;;7.60
9119;BMP180;4594;50.994;7.126;2024-03-08T03:27:54;100558.00;;;7.60
9119;BMP180;4594;50.994;7.126;2024-03-08T03:30:24;100547.00;;;7.60
9119;BMP180;4594;50.994;7.126;2024-03-08T03:32:53;100563.00;;;7.60
9119;BMP180;4594;50.994;7.126;2024-03-08T03:35:21;100560.00;;;7.60
9119;BMP180;4594;50.994;7.126;2024-03-08T03:37:47;100568.00;;;7.60
9119;BMP180;4594;50.994;7.126;2024-03-08T03:40:30;100550.00;;;7.60
9119;BMP180;4594;50.994;7.126;2024-03-08T03:42:56;100570.00;;;7.60
9119;BMP180;4594;50.994;7.126;2024-03-08T03:45:23;100567.00;;;7.60
9119;BMP180;4594;50.994;7.126;2024-03-08T03:47:49;100559.00;;;7.60
9119;BMP180;4594;50.994;7.126;2024-03-08T03:50:15;100561.00;;;7.60
9119;BMP180;4594;50.994;7.126;2024-03-08T03:52:41;100562.00;;;7.60
9119;BMP180;4594;50.994;7.126;2024-03-08T03:55:08;100570.00;;;7.60
9119;BMP180;4594;50.994;7.126;2024-03-08T03:57:34;100568.00;;;7.60
9119;BMP180;4594;50.994;7.126;2024-03-08T03:59:59;100543.00;;;7.60
9119;BMP180;4594;50.994;7.126;2024-03-08T04:02:25;100555.00;;;7.60
9119;BMP180;4594;50.994;7.126;2024-03-08T04:04:52;100557.00;;;7.60
9119;BMP180;4594;50.994;7.126;2024-03-08T04:07:20;100562.00;;;7.60
9119;BMP180;4594;50.994;7.126;2024-03-08T04:09:46;100552.00;;;7.60
9119;BMP180;4594;50.994;7.126;2024-03-08T04:12:12;100546.00;;;7.60
9119;BMP180;4594;50.994;7.126;2024-03-08T04:14:42;100544.00;;;7.60
9119;BMP180;4594;50.994;7.126;2024-03-08T04:17:08;100544.00;;;7.60
9119;BMP180;4594;50.994;7.126;2024-03-08T04:19:38;100534.00;;;7.50
9119;BMP180;4594;50.994;7.126;2024-03-08T04:22:06;100546.00;;;7.50
9119;BMP180;4594;50.994;7.126;2024-03-08T04:24:33;100555.00;;;7.50
9119;BMP180;4594;50.994;7.126;2024-03-08T04:26:59;100540.00;;;7.50
9119;BMP180;4594;50.994;7.126;2024-03-08T04:29:25;100546.00;;;7.50
9119;BMP180;4594;50.994;7.126;2024-03-08T04:31:51;100540.00;;;7.50
9119;BMP180;4594;50.994;7.126;2024-03-08T04:34:20;100543.00;;;7.50
9119;BMP180;4594;50.994;7.126;2024-03-08T04:36:48;100547.00;;;7.50
9119;BMP180;4594;50.994;7.126;2024-03-08T04:39:14;100541.00;;;7.50
9119;BMP180;4594;50.994;7.126;2024-03-08T04:41:42;100534.00;;;7.50
9119;BMP180;4594;50.994;7.126;2024-03-08T04:44:10;100518.00;;;7.50
9119;BMP180;4594;50.994;7.126;2024-03-08T04:46:36;100531.00;;;7.50
9119;BMP180;4594;50.994;7.126;2024-03-08T04:49:02;100531.00;;;7.50
9119;BMP180;4594;50.994;7.126;2024-03-08T04:51:27;100520.00;;;7.50
9119;BMP180;4594;50.994;7.126;2024-03-08T04:53:53;100523.00;;;7.50
9119;BMP180;4594;50.994;7.126;2024-03-08T04:56:19;100496.00;;;7.50
9119;BMP180;4594;50.994;7.126;2024-03-08T04:58:45;100523.00;;;7.50
9119;BMP180;4594;50.994;7.126;2024-03-08T05:01:12;100517.00;;;7.50
9119;BMP180;4594;50.994;7.126;2024-03-08T05:03:38;100525.00;;;7.50
9119;BMP180;4594;50.994;7.126;2024-03-08T05:06:04;100501.00;;;7.50
9119;BMP180;4594;50.994;7.126;2024-03-08T05:08:30;100501.00;;;7.50
9119;BMP180;4594;50.994;7.126;2024-03-08T05:10:56;100501.00;;;7.50
9119;BMP180;4594;50.994;7.126;2024-03-08T05:13:22;100509.00;;;7.50
9119;BMP180;4594;50.994;7.126;2024-03-08T05:15:49;100484.00;;;7.50
9119;BMP180;4594;50.994;7.126;2024-03-08T05:18:18;100494.00;;;7.50
9119;BMP180;4594;50.994;7.126;2024-03-08T05:20:43;100502.00;;;7.50
9119;BMP180;4594;50.994;7.126;2024-03-08T05:23:09;100500.00;;;7.40
9119;BMP180;4594;50.994;7.126;2024-03-08T05:25:35;100493.00;;;7.50
9119;BMP180;4594;50.994;7.126;2024-03-08T05:28:01;100487.00;;;7.50
9119;BMP180;4594;50.994;7.126;2024-03-08T05:30:27;100482.00;;;7.50
9119;BMP180;4594;50.994;7.126;2024-03-08T05:32:52;100487.00;;;7.50
9119;BMP180;4594;50.994;7.126;2024-03-08T05:35:18;100491.00;;;7.50
9119;BMP180;4594;50.994;7.126;2024-03-08T05:37:44;100493.00;;;7.50
9119;BMP180;4594;50.994;7.126;2024-03-08T05:40:10;100477.00;;;7.50
9119;BMP180;4594;50.994;7.126;2024-03-08T05:42:36;100468.00;;;7.40
9119;BMP180;4594;50.994;7.126;2024-03-08T05:45:05;100484.00;;;7.50
9119;BMP180;4594;50.994;7.126;2024-03-08T05:47:36;100473.00;;;7.50
9119;BMP180;4594;50.994;7.126;2024-03-08T05:50:02;100465.00;;;7.50
9119;BMP180;4594;50.994;7.126;2024-03-08T05:52:28;100489.00;;;7.50
9119;BMP180;4594;50.994;7.126;2024-03-08T05:54:54;100476.00;;;7.50
9119;BMP180;4594;50.994;7.126;2024-03-08T05:57:19;100479.00;;;7.40
9119;BMP180;4594;50.994;7.126;2024-03-08T05:59:45;100476.00;;;7.40
9119;BMP180;4594;50.994;7.126;2024-03-08T06:02:11;100476.00;;;7.40
9119;BMP180;4594;50.994;7.126;2024-03-08T06:04:36;100476.00;;;7.50
9119;BMP180;4594;50.994;7.126;2024-03-08T06:07:03;100461.00;;;7.50
9119;BMP180;4594;50.994;7.126;2024-03-08T06:09:29;100476.00;;;7.50
9119;BMP180;4594;50.994;7.126;2024-03-08T06:11:55;100465.00;;;7.60
9119;BMP180;4594;50.994;7.126;2024-03-08T06:14:22;100462.00;;;7.60
9119;BMP180;4594;50.994;7.126;2024-03-08T06:16:48;100475.00;;;7.60
9119;BMP180;4594;50.994;7.126;2024-03-08T06:19:15;100477.00;;;7.70
9119;BMP180;4594;50.994;7.126;2024-03-08T06:21:41;100479.00;;;7.70
9119;BMP180;4594;50.994;7.126;2024-03-08T06:24:07;100462.00;;;7.70
9119;BMP180;4594;50.994;7.126;2024-03-08T06:26:32;100476.00;;;7.70
9119;BMP180;4594;50.994;7.126;2024-03-08T06:28:58;100475.00;;;7.80
9119;BMP180;4594;50.994;7.126;2024-03-08T06:31:24;100455.00;;;7.80
9119;BMP180;4594;50.994;7.126;2024-03-08T06:33:50;100456.00;;;7.80
9119;BMP180;4594;50.994;7.126;2024-03-08T06:36:18;100473.00;;;7.90
9119;BMP180;4594;50.994;7.126;2024-03-08T06:38:47;100458.00;;;8.00
9119;BMP180;4594;50.994;7.126;2024-03-08T06:41:14;100458.00;;;8.20
9119;BMP180;4594;50.994;7.126;2024-03-08T06:43:46;100476.00;;;8.40
9119;BMP180;4594;50.994;7.126;2024-03-08T06:46:12;100471.00;;;8.50
9119;BMP180;4594;50.994;7.126;2024-03-08T06:48:41;100472.00;;;8.60
9119;BMP180;4594;50.994;7.126;2024-03-08T06:51:07;100450.00;;;8.90
9119;BMP180;4594;50.994;7.126;2024-03-08T06:53:33;100474.00;;;9.10
9119;BMP180;4594;50.994;7.126;2024-03-08T06:56:01;100470.00;;;9.30
9119;BMP180;4594;50.994;7.126;2024-03-08T06:58:27;100457.00;;;9.60
9119;BMP180;4594;50.994;7.126;2024-03-08T07:00:53;100435.00;;;9.80
9119;BMP180;4594;50.994;7.126;2024-03-08T07:03:19;100477.00;;;10.00
9119;BMP180;4594;50.994;7.126;2024-03-08T07:05:47;100473.00;;;10.30
9119;BMP180;4594;50.994;7.126;2024-03-08T07:08:13;100454.00;;;10.50
9119;BMP180;4594;50.994;7.126;2024-03-08T07:10:40;100464.00;;;10.80
9119;BMP180;4594;50.994;7.126;2024-03-08T07:13:07;100457.00;;;11.10
9119;BMP180;4594;50.994;7.126;2024-03-08T07:15:33;100465.00;;;11.50
9119;BMP180;4594;50.994;7.126;2024-03-08T07:17:59;100465.00;;;11.70
9119;BMP180;4594;50.994;7.126;2024-03-08T07:20:25;100463.00;;;12.00
9119;BMP180;4594;50.994;7.126;2024-03-08T07:22:51;100457.00;;;12.30
9119;BMP180;4594;50.994;7.126;2024-03-08T07:25:17;100465.00;;;12.60
9119;BMP180;4594;50.994;7.126;2024-03-08T07:27:43;100451.00;;;12.80
9119;BMP180;4594;50.994;7.126;2024-03-08T07:30:09;100465.00;;;13.00
9119;BMP180;4594;50.994;7.126;2024-03-08T07:32:37;100458.00;;;13.10
9119;BMP180;4594;50.994;7.126;2024-03-08T07:35:04;100455.00;;;13.30
9119;BMP180;4594;50.994;7.126;2024-03-08T07:37:29;100448.00;;;13.40
9119;BMP180;4594;50.994;7.126;2024-03-08T07:39:57;100453.00;;;13.60
9119;BMP180;4594;50.994;7.126;2024-03-08T07:42:23;100456.00;;;14.00
9119;BMP180;4594;50.994;7.126;2024-03-08T07:44:49;100443.00;;;14.40
9119;BMP180;4594;50.994;7.126;2024-03-08T07:47:15;100448.00;;;14.80
9119;BMP180;4594;50.994;7.126;2024-03-08T07:49:42;100431.00;;;15.20
9119;BMP180;4594;50.994;7.126;2024-03-08T07:52:09;100426.00;;;15.50
9119;BMP180;4594;50.994;7.126;2024-03-08T07:54:41;100418.00;;;15.80
9119;BMP180;4594;50.994;7.126;2024-03-08T07:57:07;100428.00;;;16.10
9119;BMP180;4594;50.994;7.126;2024-03-08T07:59:32;100420.00;;;16.40
9119;BMP180;4594;50.994;7.126;2024-03-08T08:01:58;100417.00;;;16.80
9119;BMP180;4594;50.994;7.126;2024-03-08T08:04:25;100420.00;;;17.20
9119;BMP180;4594;50.994;7.126;2024-03-08T08:06:52;100425.00;;;17.50
9119;BMP180;4594;50.994;7.126;2024-03-08T08:09:20;100412.00;;;17.80
9119;BMP180;4594;50.994;7.126;2024-03-08T08:11:56;100409.00;;;18.10
9119;BMP180;4594;50.994;7.126;2024-03-08T08:14:22;100408.00;;;18.50
9119;BMP180;4594;50.994;7.126;2024-03-08T08:16:48;100419.00;;;18.90
9119;BMP180;4594;50.994;7.126;2024-03-08T08:19:15;100415.00;;;19.30
9119;BMP180;4594;50.994;7.126;2024-03-08T08:21:41;100411.00;;;19.60
9119;BMP180;4594;50.994;7.126;2024-03-08T08:24:07;100414.00;;;20.00
9119;BMP180;4594;50.994;7.126;2024-03-08T08:26:33;100404.00;;;20.30
9119;BMP180;4594;50.994;7.126;2024-03-08T08:28:59;100407.00;;;20.60
9119;BMP180;4594;50.994;7.126;2024-03-08T08:31:25;100399.00;;;21.00
9119;BMP180;4594;50.994;7.126;2024-03-08T08:33:51;100400.00;;;21.30
9119;BMP180;4594;50.994;7.126;2024-03-08T08:36:26;100380.00;;;21.40
9119;BMP180;4594;50.994;7.126;2024-03-08T08:38:55;100381.00;;;21.70
9119;BMP180;4594;50.994;7.126;2024-03-08T08:41:23;100380.00;;;22.00
9119;BMP180;4594;50.994;7.126;2024-03-08T08:43:49;100393.00;;;22.30
9119;BMP180;4594;50.994;7.126;2024-03-08T08:46:18;100377.00;;;22.70
9119;BMP180;4594;50.994;7.126;2024-03-08T08:48:44;100375.00;;;22.90
9119;BMP180;4594;50.994;7.126;2024-03-08T08:51:13;100384.00;;;23.20
9119;BMP180;4594;50.994;7.126;2024-03-08T08:53:39;100351.00;;;23.40
9119;BMP180;4594;50.994;7.126;2024-03-08T08:56:14;100358.00;;;23.70
9119;BMP180;4594;50.994;7.126;2024-03-08T08:58:44;100370.00;;;24.10
9119;BMP180;4594;50.994;7.126;2024-03-08T09:01:10;100354.00;;;24.40
9119;BMP180;4594;50.994;7.126;2024-03-08T09:03:37;100372.00;;;24.50
9119;BMP180;4594;50.994;7.126;2024-03-08T09:06:04;100360.00;;;24.60
9119;BMP180;4594;50.994;7.126;2024-03-08T09:08:30;100341.00;;;24.60
9119;BMP180;4594;50.994;7.126;2024-03-08T09:10:56;100355.00;;;24.70
9119;BMP180;4594;50.994;7.126;2024-03-08T09:13:22;100352.00;;;24.90
9119;BMP180;4594;50.994;7.126;2024-03-08T09:15:48;100351.00;;;25.10
9119;BMP180;4594;50.994;7.126;2024-03-08T09:18:14;100349.00;;;25.30
9119;BMP180;4594;50.994;7.126;2024-03-08T09:20:40;100352.00;;;25.40
9119;BMP180;4594;50.994;7.126;2024-03-08T09:23:06;100356.00;;;25.40
9119;BMP180;4594;50.994;7.126;2024-03-08T09:25:34;100347.00;;;25.40
9119;BMP180;4594;50.994;7.126;2024-03-08T09:27:59;100348.00;;;25.30
9119;BMP180;4594;50.994;7.126;2024-03-08T09:30:25;100331.00;;;25.20
9119;BMP180;4594;50.994;7.126;2024-03-08T09:32:51;100332.00;;;25.10
9119;BMP180;4594;50.994;7.126;2024-03-08T09:35:16;100336.00;;;25.20
9119;BMP180;4594;50.994;7.126;2024-03-08T09:37:42;100337.00;;;25.40
9119;BMP180;4594;50.994;7.126;2024-03-08T09:40:08;100338.00;;;25.70
9119;BMP180;4594;50.994;7.126;2024-03-08T09:42:42;100309.00;;;26.00
9119;BMP180;4594;50.994;7.126;2024-03-08T09:45:12;100326.00;;;26.30
9119;BMP180;4594;50.994;7.126;2024-03-08T09:47:42;100330.00;;;26.40
9119;BMP180;4594;50.994;7.126;2024-03-08T09:50:09;100306.00;;;26.50
9119;BMP180;4594;50.994;7.126;2024-03-08T09:52:42;100304.00;;;26.70
9119;BMP180;4594;50.994;7.126;2024-03-08T09:55:10;100310.00;;;27.00
9119;BMP180;4594;50.994;7.126;2024-03-08T09:57:43;100303.00;;;27.10
9119;BMP180;4594;50.994;7.126;2024-03-08T10:00:41;100298.00;;;27.30
9119;BMP180;4594;50.994;7.126;2024-03-08T10:03:07;100298.00;;;27.50
9119;BMP180;4594;50.994;7.126;2024-03-08T10:05:34;100307.00;;;27.80
9119;BMP180;4594;50.994;7.126;2024-03-08T10:08:00;100320.00;;;28.00
9119;BMP180;4594;50.994;7.126;2024-03-08T10:10:26;100313.00;;;28.00
9119;BMP180;4594;50.994;7.126;2024-03-08T10:12:52;100292.00;;;28.00
9119;BMP180;4594;50.994;7.126;2024-03-08T10:15:17;100294.00;;;28.10
9119;BMP180;4594;50.994;7.126;2024-03-08T10:17:43;100334.00;;;28.30
9119;BMP180;4594;50.994;7.126;2024-03-08T10:20:17;100290.00;;;28.30
9119;BMP180;4594;50.994;7.126;2024-03-08T10:22:44;100305.00;;;28.30
9119;BMP180;4594;50.994;7.126;2024-03-08T10:25:11;100277.00;;;28.30
9119;BMP180;4594;50.994;7.126;2024-03-08T10:27:39;100272.00;;;28.20
9119;BMP180;4594;50.994;7.126;2024-03-08T10:30:12;100285.00;;;28.20
9119;BMP180;4594;50.994;7.126;2024-03-08T10:32:40;100271.00;;;28.10
9119;BMP180;4594;50.994;7.126;2024-03-08T10:35:08;100276.00;;;27.90
9119;BMP180;4594;50.994;7.126;2024-03-08T10:40:09;100293.00;;;27.70
9119;BMP180;4594;50.994;7.126;2024-03-08T10:42:58;100266.00;;;27.50
9119;BMP180;4594;50.994;7.126;2024-03-08T10:45:37;100261.00;;;27.20
9119;BMP180;4594;50.994;7.126;2024-03-08T10:48:31;100247.00;;;26.80
9119;BMP180;4594;50.994;7.126;2024-03-08T10:51:02;100258.00;;;26.60
9119;BMP180;4594;50.994;7.126;2024-03-08T10:53:29;100261.00;;;26.10
9119;BMP180;4594;50.994;7.126;2024-03-08T10:55:57;100237.00;;;25.30
9119;BMP180;4594;50.994;7.126;2024-03-08T10:58:26;100263.00;;;24.50
9119;BMP180;4594;50.994;7.126;2024-03-08T11:00:54;100252.00;;;23.60
9119;BMP180;4594;50.994;7.126;2024-03-08T11:06:17;100248.00;;;22.00
9119;BMP180;4594;50.994;7.126;2024-03-08T11:08:45;100225.00;;;21.30
9119;BMP180;4594;50.994;7.126;2024-03-08T11:11:32;100218.00;;;20.70
9119;BMP180;4594;50.994;7.126;2024-03-08T11:14:01;100194.00;;;20.10
9119;BMP180;4594;50.994;7.126;2024-03-08T11:19:04;100212.00;;;19.20
9119;BMP180;4594;50.994;7.126;2024-03-08T11:21:32;100231.00;;;18.80
9119;BMP180;4594;50.994;7.126;2024-03-08T11:24:07;100195.00;;;18.40
9119;BMP180;4594;50.994;7.126;2024-03-08T11:26:33;100200.00;;;18.10
9119;BMP180;4594;50.994;7.126;2024-03-08T11:32:16;100199.00;;;17.60
9119;BMP180;4594;50.994;7.126;2024-03-08T11:34:47;100194.00;;;17.40
9119;BMP180;4594;50.994;7.126;2024-03-08T11:37:22;100190.00;;;17.20
9119;BMP180;4594;50.994;7.126;2024-03-08T11:39:52;100179.00;;;16.90
9119;BMP180;4594;50.994;7.126;2024-03-08T11:42:19;100164.00;;;16.80
9119;BMP180;4594;50.994;7.126;2024-03-08T11:44:46;100179.00;;;16.70
9119;BMP180;4594;50.994;7.126;2024-03-08T11:47:14;100185.00;;;16.60
9119;BMP180;4594;50.994;7.126;2024-03-08T11:49:40;100171.00;;;16.50
9119;BMP180;4594;50.994;7.126;2024-03-08T11:52:16;100156.00;;;16.40
9119;BMP180;4594;50.994;7.126;2024-03-08T11:54:47;100147.00;;;16.30
9119;BMP180;4594;50.994;7.126;2024-03-08T11:57:18;100155.00;;;16.30
9119;BMP180;4594;50.994;7.126;2024-03-08T11:59:53;100183.00;;;16.30
9119;BMP180;4594;50.994;7.126;2024-03-08T12:02:20;100147.00;;;16.20
9119;BMP180;4594;50.994;7.126;2024-03-08T12:04:47;100134.00;;;16.20
9119;BMP180;4594;50.994;7.126;2024-03-08T12:07:12;100148.00;;;16.20
9119;BMP180;4594;50.994;7.126;2024-03-08T12:09:40;100130.00;;;16.10
9119;BMP180;4594;50.994;7.126;2024-03-08T12:12:12;100166.00;;;16.10
9119;BMP180;4594;50.994;7.126;2024-03-08T12:14:38;100130.00;;;16.10
9119;BMP180;4594;50.994;7.126;2024-03-08T12:17:04;100107.00;;;16.00
9119;BMP180;4594;50.994;7.126;2024-03-08T12:19:31;100139.00;;;16.00
9119;BMP180;4594;50.994;7.126;2024-03-08T12:22:08;100110.00;;;16.00
9119;BMP180;4594;50.994;7.126;2024-03-08T12:24:35;100128.00;;;16.00
9119;BMP180;4594;50.994;7.126;2024-03-08T12:27:20;100125.00;;;15.90
9119;BMP180;4594;50.994;7.126;2024-03-08T12:29:46;100104.00;;;15.90
9119;BMP180;4594;50.994;7.126;2024-03-08T12:32:12;100108.00;;;15.90
9119;BMP180;4594;50.994;7.126;2024-03-08T12:34:38;100118.00;;;15.90
9119;BMP180;4594;50.994;7.126;2024-03-08T12:37:05;100097.00;;;16.00
9119;BMP180;4594;50.994;7.126;2024-03-08T12:39:32;100140.00;;;16.00
9119;BMP180;4594;50.994;7.126;2024-03-08T12:41:58;100084.00;;;16.00
9119;BMP180;4594;50.994;7.126;2024-03-08T12:44:25;100096.00;;;16.00
9119;BMP180;4594;50.994;7.126;2024-03-08T12:46:51;100111.00;;;15.90
9119;BMP180;4594;50.994;7.126;2024-03-08T12:49:19;100084.00;;;15.90
9119;BMP180;4594;50.994;7.126;2024-03-08T12:51:48;100073.00;;;15.90
9119;BMP180;4594;50.994;7.126;2024-03-08T12:54:14;100094.00;;;15.80
9119;BMP180;4594;50.994;7.126;2024-03-08T12:56:39;100065.00;;;15.80
9119;BMP180;4594;50.994;7.126;2024-03-08T12:59:07;100064.00;;;15.80
9119;BMP180;4594;50.994;7.126;2024-03-08T13:01:35;100096.00;;;15.80
9119;BMP180;4594;50.994;7.126;2024-03-08T13:04:03;100080.00;;;15.80
9119;BMP180;4594;50.994;7.126;2024-03-08T13:06:30;100054.00;;;15.70
9119;BMP180;4594;50.994;7.126;2024-03-08T13:08:57;100041.00;;;15.70
9119;BMP180;4594;50.994;7.126;2024-03-08T13:11:24;100037.00;;;15.70
9119;BMP180;4594;50.994;7.126;2024-03-08T13:13:51;100041.00;;;15.70
9119;BMP180;4594;50.994;7.126;2024-03-08T13:16:18;100044.00;;;15.70
9119;BMP180;4594;50.994;7.126;2024-03-08T13:18:48;100046.00;;;15.80
9119;BMP180;4594;50.994;7.126;2024-03-08T13:21:16;100029.00;;;15.80
9119;BMP180;4594;50.994;7.126;2024-03-08T13:23:45;100041.00;;;15.80
9119;BMP180;4594;50.994;7.126;2024-03-08T13:26:15;100028.00;;;15.80
9119;BMP180;4594;50.994;7.126;2024-03-08T13:28:46;100026.00;;;15.80
9119;BMP180;4594;50.994;7.126;2024-03-08T13:31:11;100030.00;;;15.80
9119;BMP180;4594;50.994;7.126;2024-03-08T13:33:38;100017.00;;;15.90
9119;BMP180;4594;50.994;7.126;2024-03-08T13:36:12;100004.00;;;15.90
9119;BMP180;4594;50.994;7.126;2024-03-08T13:38:48;100028.00;;;15.90
9119;BMP180;4594;50.994;7.126;2024-03-08T13:41:16;100003.00;;;15.90
9119;BMP180;4594;50.994;7.126;2024-03-08T13:43:47;100002.00;;;15.80
9119;BMP180;4594;50.994;7.126;2024-03-08T13:46:16;99982.00;;;15.80
9119;BMP180;4594;50.994;7.126;2024-03-08T13:48:41;99983.00;;;15.80
9119;BMP180;4594;50.994;7.126;2024-03-08T13:51:08;99987.00;;;15.80
9119;BMP180;4594;50.994;7.126;2024-03-08T13:53:41;99977.00;;;15.90
9119;BMP180;4594;50.994;7.126;2024-03-08T13:56:06;99969.00;;;15.80
9119;BMP180;4594;50.994;7.126;2024-03-08T13:58:36;99976.00;;;15.80
9119;BMP180;4594;50.994;7.126;2024-03-08T14:01:02;99959.00;;;15.80
9119;BMP180;4594;50.994;7.126;2024-03-08T14:03:28;99959.00;;;15.80
9119;BMP180;4594;50.994;7.126;2024-03-08T14:05:54;99963.00;;;15.80
9119;BMP180;4594;50.994;7.126;2024-03-08T14:08:21;99987.00;;;15.80
9119;BMP180;4594;50.994;7.126;2024-03-08T14:10:47;99955.00;;;15.80
9119;BMP180;4594;50.994;7.126;2024-03-08T14:13:14;99942.00;;;15.80
9119;BMP180;4594;50.994;7.126;2024-03-08T14:15:41;99941.00;;;15.80
9119;BMP180;4594;50.994;7.126;2024-03-08T14:18:08;99939.00;;;15.80
9119;BMP180;4594;50.994;7.126;2024-03-08T14:20:33;99946.00;;;15.80
9119;BMP180;4594;50.994;7.126;2024-03-08T14:22:59;99942.00;;;15.80
9119;BMP180;4594;50.994;7.126;2024-03-08T14:25:25;99929.00;;;15.80
9119;BMP180;4594;50.994;7.126;2024-03-08T14:27:53;99939.00;;;15.80
9119;BMP180;4594;50.994;7.126;2024-03-08T14:30:24;99922.00;;;15.80
9119;BMP180;4594;50.994;7.126;2024-03-08T14:33:05;99918.00;;;15.70
9119;BMP180;4594;50.994;7.126;2024-03-08T14:35:41;99906.00;;;15.70
9119;BMP180;4594;50.994;7.126;2024-03-08T14:38:07;99907.00;;;15.70
9119;BMP180;4594;50.994;7.126;2024-03-08T14:40:34;99914.00;;;15.70
9119;BMP180;4594;50.994;7.126;2024-03-08T14:43:01;99891.00;;;15.70